createdAt,value
2023-04-04T00:01:17.864Z,102038.84
2023-04-04T00:03:47.332Z,102033.50
2023-04-04T00:06:15.904Z,102037.78
2023-04-04T00:08:44.317Z,102032.41
2023-04-04T00:11:14.323Z,101983.63
2023-04-04T00:13:43.433Z,102008.50
2023-04-04T00:16:11.987Z,102004.06
2023-04-04T00:18:40.995Z,102027.81
2023-04-04T00:21:09.726Z,102030.41
2023-04-04T00:23:38.464Z,102030.22
2023-04-04T00:26:07.290Z,102031.16
2023-04-04T00:28:37.212Z,102028.38
2023-04-04T00:31:06.253Z,102024.66
2023-04-04T00:33:34.734Z,102028.91
2023-04-04T00:36:03.877Z,101947.03
2023-04-04T00:38:32.633Z,102023.47
2023-04-04T00:41:01.767Z,102019.75
2023-04-04T00:43:31.541Z,102028.25
2023-04-04T00:46:01.547Z,102026.22
2023-04-04T00:48:31.380Z,102019.94
2023-04-04T00:51:00.110Z,102024.13
2023-04-04T00:53:29.051Z,102026.72
2023-04-04T00:55:57.897Z,102023.03
2023-04-04T00:58:27.766Z,101953.56
2023-04-04T01:00:56.711Z,102017.28
2023-04-04T01:03:26.592Z,102018.88
2023-04-04T01:05:56.155Z,101977.00
2023-04-04T01:08:29.180Z,102002.50
2023-04-04T01:10:58.007Z,102011.41
2023-04-04T01:13:28.222Z,101962.41
2023-04-04T01:15:57.612Z,102020.50
2023-04-04T01:18:29.770Z,101999.03
2023-04-04T01:21:03.086Z,102009.72
2023-04-04T01:23:48.492Z,102012.09
2023-04-04T01:26:18.970Z,102006.56
2023-04-04T01:28:47.890Z,102009.03
2023-04-04T01:31:22.651Z,102002.72
2023-04-04T01:34:04.907Z,101998.91
2023-04-04T01:36:49.361Z,101993.25
2023-04-04T01:39:28.880Z,101998.16
2023-04-04T01:42:00.998Z,101994.31
2023-04-04T01:44:30.200Z,101985.25
2023-04-04T01:46:59.183Z,101998.19
2023-04-04T01:49:27.901Z,101993.41
2023-04-04T01:51:57.305Z,101982.72
2023-04-04T01:54:28.200Z,101990.22
2023-04-04T01:56:58.193Z,101983.81
2023-04-04T01:59:27.306Z,101978.34
2023-04-04T02:01:56.265Z,101980.81
2023-04-04T02:04:25.045Z,101984.03
2023-04-04T02:06:53.554Z,101973.38
2023-04-04T02:09:22.405Z,101985.34
2023-04-04T02:11:50.961Z,101981.56
2023-04-04T02:14:20.798Z,101977.75
2023-04-04T02:16:49.981Z,101974.16
2023-04-04T02:19:18.829Z,101977.41
2023-04-04T02:21:47.573Z,101967.47
2023-04-04T02:24:16.214Z,101965.25
2023-04-04T02:26:44.728Z,101936.25
2023-04-04T02:29:13.254Z,101959.19
2023-04-04T02:31:43.134Z,101962.53
2023-04-04T02:34:11.680Z,101959.50
2023-04-04T02:36:40.713Z,101964.19
2023-04-04T02:39:09.584Z,101962.41
2023-04-04T02:41:39.816Z,101958.84
2023-04-04T02:44:08.993Z,101966.03
2023-04-04T02:46:39.078Z,101964.47
2023-04-04T02:49:12.571Z,101948.66
2023-04-04T02:54:16.450Z,101958.41
2023-04-04T02:56:48.204Z,101957.34
2023-04-04T02:59:18.194Z,101953.66
2023-04-04T03:01:46.780Z,101952.75
2023-04-04T03:04:16.969Z,101945.69
2023-04-04T03:06:46.793Z,101942.59
2023-04-04T03:09:16.214Z,101944.22
2023-04-04T03:11:44.990Z,101946.50
2023-04-04T03:14:14.002Z,101945.47
2023-04-04T03:16:42.720Z,101949.47
2023-04-04T03:19:11.198Z,101896.94
2023-04-04T03:21:40.952Z,101937.00
2023-04-04T03:24:09.851Z,101939.44
2023-04-04T03:26:38.595Z,101938.31
2023-04-04T03:29:07.250Z,101942.56
2023-04-04T03:31:35.988Z,101944.19
2023-04-04T03:34:05.464Z,101945.16
2023-04-04T03:36:34.021Z,101945.88
2023-04-04T03:39:03.834Z,101943.44
2023-04-04T03:41:32.511Z,101941.59
2023-04-04T03:44:01.204Z,101944.09
2023-04-04T03:46:30.002Z,101940.53
2023-04-04T03:49:01.763Z,101937.84
2023-04-04T03:51:30.502Z,101941.13
2023-04-04T03:53:59.242Z,101945.25
2023-04-04T03:56:31.346Z,101853.53
2023-04-04T03:59:04.408Z,101944.34
2023-04-04T04:01:33.172Z,101942.34
2023-04-04T04:04:02.269Z,101941.16
2023-04-04T04:06:31.024Z,101942.69
2023-04-04T04:08:59.709Z,101942.53
2023-04-04T04:11:30.996Z,101941.47
2023-04-04T04:14:01.983Z,101910.94
2023-04-04T04:16:30.873Z,101938.63
2023-04-04T04:19:01.219Z,101943.28
2023-04-04T04:21:39.178Z,101940.75
2023-04-04T04:24:08.622Z,101943.78
2023-04-04T04:26:38.434Z,101942.63
2023-04-04T04:29:07.939Z,101945.13
2023-04-04T04:31:36.648Z,101946.81
2023-04-04T04:34:07.624Z,101945.78
2023-04-04T04:36:37.452Z,101948.69
2023-04-04T04:39:38.465Z,101945.69
2023-04-04T04:42:19.747Z,101943.19
2023-04-04T04:44:53.671Z,101938.41
2023-04-04T04:47:23.021Z,101946.50
2023-04-04T04:49:52.022Z,101950.41
2023-04-04T04:52:27.170Z,101945.63
2023-04-04T04:54:56.491Z,101955.59
2023-04-04T04:57:27.461Z,101929.34
2023-04-04T04:59:58.178Z,101936.84
2023-04-04T05:02:29.242Z,101952.25
2023-04-04T05:04:58.290Z,101955.84
2023-04-04T05:07:28.200Z,101955.84
2023-04-04T05:09:57.251Z,101956.72
2023-04-04T05:12:27.218Z,101956.72
2023-04-04T05:14:57.232Z,101956.72
2023-04-04T05:17:26.592Z,101965.94
2023-04-04T05:19:59.548Z,101963.22
2023-04-04T05:22:28.501Z,101972.69
2023-04-04T05:24:58.441Z,101960.63
2023-04-04T05:27:29.239Z,101973.97
2023-04-04T05:30:02.564Z,101970.88
2023-04-04T05:32:41.020Z,101981.47
2023-04-04T05:35:17.058Z,101976.53
2023-04-04T05:37:45.914Z,101988.38
2023-04-04T05:40:18.164Z,101985.19
2023-04-04T05:43:02.168Z,101856.44
2023-04-04T05:45:36.936Z,101993.75
2023-04-04T05:48:06.157Z,102003.56
2023-04-04T05:50:40.960Z,101995.09
2023-04-04T05:53:09.878Z,101998.59
2023-04-04T05:55:38.824Z,102002.38
2023-04-04T05:58:09.821Z,102003.06
2023-04-04T06:00:48.816Z,102002.56
2023-04-04T06:03:20.381Z,101993.22
2023-04-04T06:05:53.454Z,102005.16
2023-04-04T06:08:22.564Z,101994.84
2023-04-04T06:10:51.237Z,101995.94
2023-04-04T06:13:21.035Z,101977.09
2023-04-04T06:15:54.796Z,101987.16
2023-04-04T06:18:23.251Z,101988.66
2023-04-04T06:20:51.998Z,101991.53
2023-04-04T06:23:20.688Z,102001.19
2023-04-04T06:25:51.630Z,101993.47
2023-04-04T06:28:23.555Z,101990.41
2023-04-04T06:30:53.068Z,101994.97
2023-04-04T06:33:29.913Z,102002.31
2023-04-04T06:35:58.655Z,101994.91
2023-04-04T06:38:29.403Z,101996.84
2023-04-04T06:41:00.295Z,102000.53
2023-04-04T06:43:31.108Z,101969.09
2023-04-04T06:46:00.691Z,101982.66
2023-04-04T06:48:29.444Z,101993.00
2023-04-04T06:50:57.900Z,101995.13
2023-04-04T06:53:26.939Z,101981.94
2023-04-04T06:55:55.658Z,101991.88
2023-04-04T06:58:24.130Z,101991.28
2023-04-04T07:00:53.895Z,101989.88
2023-04-04T07:03:23.799Z,101992.81
2023-04-04T07:05:52.633Z,101997.75
2023-04-04T07:08:21.572Z,102001.25
2023-04-04T07:10:50.385Z,101995.22
2023-04-04T07:13:19.021Z,101993.19
2023-04-04T07:15:50.151Z,101991.44
2023-04-04T07:18:19.943Z,101964.72
2023-04-04T07:20:48.745Z,102001.50
2023-04-04T07:23:17.167Z,102002.78
2023-04-04T07:25:46.127Z,101991.25
2023-04-04T07:28:14.805Z,101992.44
2023-04-04T07:30:43.377Z,101994.22
2023-04-04T07:33:11.822Z,101991.81
2023-04-04T07:35:41.632Z,101985.63
2023-04-04T07:38:10.634Z,101993.28
2023-04-04T07:40:39.444Z,101988.88
2023-04-04T07:43:08.320Z,101979.09
2023-04-04T07:45:37.004Z,101991.56
2023-04-04T07:48:06.009Z,101993.28
2023-04-04T07:50:34.826Z,101994.22
2023-04-04T07:53:04.627Z,101990.28
2023-04-04T07:55:33.365Z,101988.69
2023-04-04T07:58:01.735Z,101995.03
2023-04-04T08:00:30.675Z,101992.66
2023-04-04T08:03:01.043Z,101910.53
2023-04-04T08:05:30.313Z,101985.50
2023-04-04T08:07:58.778Z,101986.41
2023-04-04T08:10:28.637Z,101990.25
2023-04-04T08:12:57.033Z,101988.47
2023-04-04T08:15:25.773Z,101998.06
2023-04-04T08:17:56.107Z,101921.09
2023-04-04T08:20:24.994Z,101997.91
2023-04-04T08:22:53.713Z,102004.25
2023-04-04T08:25:22.907Z,101993.66
2023-04-04T08:27:52.689Z,101995.78
2023-04-04T08:30:21.677Z,101992.06
2023-04-04T08:32:50.378Z,101989.22
2023-04-04T08:35:19.242Z,101995.28
2023-04-04T08:37:47.964Z,101990.13
2023-04-04T08:40:17.488Z,101994.03
2023-04-04T08:42:46.266Z,101985.56
2023-04-04T08:45:20.318Z,101987.94
2023-04-04T08:47:53.356Z,101939.53
2023-04-04T08:50:22.790Z,101959.78
2023-04-04T08:52:55.008Z,101983.75
2023-04-04T08:55:23.580Z,101984.00
2023-04-04T08:57:52.190Z,101985.34
2023-04-04T09:00:22.885Z,101984.31
2023-04-04T09:02:59.664Z,101971.69
2023-04-04T09:05:29.298Z,101982.31
2023-04-04T09:07:59.265Z,101969.13
2023-04-04T09:10:29.745Z,101977.63
2023-04-04T09:13:12.432Z,101929.06
2023-04-04T09:15:49.312Z,101965.50
2023-04-04T09:18:19.100Z,101953.81
2023-04-04T09:20:49.125Z,101968.19
2023-04-04T09:23:20.506Z,101962.63
2023-04-04T09:28:24.243Z,101967.19
2023-04-04T09:30:54.438Z,101970.22
2023-04-04T09:33:25.213Z,101979.13
2023-04-04T09:35:58.807Z,101982.28
2023-04-04T09:38:29.463Z,101972.56
2023-04-04T09:40:58.697Z,101987.00
2023-04-04T09:43:30.898Z,101969.16
2023-04-04T09:46:02.427Z,101982.59
2023-04-04T09:48:34.662Z,101973.22
2023-04-04T09:51:07.984Z,101978.19
2023-04-04T09:53:38.077Z,101970.25
2023-04-04T09:56:08.298Z,101974.44
2023-04-04T09:58:39.139Z,101941.19
2023-04-04T10:01:15.333Z,101973.88
2023-04-04T10:03:44.199Z,101963.47
2023-04-04T10:06:13.216Z,101975.50
2023-04-04T10:08:43.804Z,101987.66
2023-04-04T10:11:12.890Z,101969.53
2023-04-04T10:13:46.704Z,101971.16
2023-04-04T10:16:16.641Z,101981.28
2023-04-04T10:18:45.622Z,101969.56
2023-04-04T10:21:15.758Z,101977.66
2023-04-04T10:23:47.908Z,101972.22
2023-04-04T10:26:16.773Z,101982.13
2023-04-04T10:28:45.815Z,101983.28
2023-04-04T10:31:24.349Z,101973.25
2023-04-04T10:34:11.417Z,101970.94
2023-04-04T10:36:47.672Z,101977.91
2023-04-04T10:39:24.650Z,101964.19
2023-04-04T10:41:54.007Z,101966.72
2023-04-04T10:44:30.472Z,101970.75
2023-04-04T10:47:09.562Z,101951.56
2023-04-04T10:49:41.227Z,101963.03
2023-04-04T10:52:11.918Z,101949.47
2023-04-04T10:54:42.260Z,101946.53
2023-04-04T10:57:11.677Z,101961.00
2023-04-04T10:59:58.831Z,101950.06
2023-04-04T11:02:48.445Z,101929.44
2023-04-04T11:05:22.311Z,101937.31
2023-04-04T11:08:07.511Z,101950.47
2023-04-04T11:10:39.364Z,101936.00
2023-04-04T11:13:16.259Z,101935.19
2023-04-04T11:15:55.836Z,101930.88
2023-04-04T11:18:49.158Z,101928.41
2023-04-04T11:21:20.091Z,101927.84
2023-04-04T11:24:17.767Z,101904.06
2023-04-04T11:26:47.268Z,101914.91
2023-04-04T11:29:44.757Z,101892.25
2023-04-04T11:32:35.538Z,101923.47
2023-04-04T11:35:08.657Z,101928.13
2023-04-04T11:37:45.491Z,101884.88
2023-04-04T11:40:15.555Z,101907.03
2023-04-04T11:42:44.977Z,101901.16
2023-04-04T11:45:22.382Z,101903.03
2023-04-04T11:47:51.415Z,101897.00
2023-04-04T11:50:22.119Z,101893.91
2023-04-04T11:52:53.970Z,101889.94
2023-04-04T11:55:23.743Z,101893.78
2023-04-04T11:57:53.576Z,101891.31
2023-04-04T12:00:32.410Z,101888.69
2023-04-04T12:03:01.197Z,101874.59
2023-04-04T12:05:32.154Z,101889.50
2023-04-04T12:08:02.617Z,101872.56
2023-04-04T12:10:35.103Z,101879.59
2023-04-04T12:13:08.126Z,101839.56
2023-04-04T12:15:37.966Z,101861.72
2023-04-04T12:18:09.891Z,101864.34
2023-04-04T12:20:42.869Z,101866.22
2023-04-04T12:23:11.286Z,101876.56
2023-04-04T12:25:44.285Z,101868.63
2023-04-04T12:28:13.459Z,101860.00
2023-04-04T12:30:42.529Z,101861.53
2023-04-04T12:33:11.424Z,101852.56
2023-04-04T12:35:41.767Z,101855.72
2023-04-04T12:38:18.536Z,101842.59
2023-04-04T12:40:47.791Z,101850.41
2023-04-04T12:43:18.780Z,101834.56
2023-04-04T12:45:47.781Z,101845.38
2023-04-04T12:48:18.195Z,101845.59
2023-04-04T12:50:56.844Z,101834.13
2023-04-04T12:53:29.488Z,101836.75
2023-04-04T12:56:03.118Z,101830.38
2023-04-04T12:58:34.844Z,101824.41
2023-04-04T13:01:05.411Z,101778.66
2023-04-04T13:03:37.821Z,101746.94
2023-04-04T13:06:15.338Z,101825.16
2023-04-04T13:08:54.419Z,101826.63
2023-04-04T13:11:23.961Z,101818.38
2023-04-04T13:14:02.695Z,101822.81
2023-04-04T13:16:33.662Z,101787.44
2023-04-04T13:19:02.580Z,101765.28
2023-04-04T13:21:32.679Z,101797.06
2023-04-04T13:24:03.999Z,101815.72
2023-04-04T13:26:32.831Z,101803.44
2023-04-04T13:29:01.541Z,101814.88
2023-04-04T13:31:30.258Z,101809.44
2023-04-04T13:33:58.744Z,101822.19
2023-04-04T13:36:28.441Z,101805.47
2023-04-04T13:38:58.487Z,101800.19
2023-04-04T13:41:26.896Z,101789.19
2023-04-04T13:43:56.651Z,101785.53
2023-04-04T13:46:25.213Z,101791.56
2023-04-04T13:48:54.009Z,101794.25
2023-04-04T13:51:24.447Z,101784.59
2023-04-04T13:53:52.940Z,101786.59
2023-04-04T13:56:23.243Z,101792.06
2023-04-04T13:58:52.333Z,101775.78
2023-04-04T14:01:22.652Z,101779.91
2023-04-04T14:03:51.639Z,101777.41
2023-04-04T14:06:20.404Z,101770.25
2023-04-04T14:08:48.886Z,101773.34
2023-04-04T14:11:17.659Z,101771.41
2023-04-04T14:13:47.405Z,101683.34
2023-04-04T14:16:16.265Z,101755.78
2023-04-04T14:18:45.127Z,101756.38
2023-04-04T14:21:13.586Z,101755.41
2023-04-04T14:23:41.969Z,101756.56
2023-04-04T14:26:10.674Z,101752.97
2023-04-04T14:28:39.656Z,101758.44
2023-04-04T14:31:09.477Z,101762.19
2023-04-04T14:33:37.959Z,101748.59
2023-04-04T14:36:07.245Z,101676.13
2023-04-04T14:38:35.697Z,101754.97
2023-04-04T14:41:05.154Z,101757.69
2023-04-04T14:43:35.448Z,101747.91
2023-04-04T14:46:04.121Z,101676.38
2023-04-04T14:48:34.389Z,101719.25
2023-04-04T14:51:02.804Z,101731.19
2023-04-04T14:53:31.471Z,101751.22
2023-04-04T14:56:00.401Z,101738.88
2023-04-04T14:58:29.165Z,101741.09
2023-04-04T15:00:58.032Z,101735.69
2023-04-04T15:03:27.100Z,101735.94
2023-04-04T15:05:57.464Z,101692.84
2023-04-04T15:08:26.448Z,101739.50
2023-04-04T15:10:56.068Z,101741.91
2023-04-04T15:13:24.575Z,101701.72
2023-04-04T15:15:53.295Z,101736.50
2023-04-04T15:18:21.662Z,101742.69
2023-04-04T15:20:50.560Z,101743.44
2023-04-04T15:23:20.452Z,101739.31
2023-04-04T15:25:48.885Z,101734.19
2023-04-04T15:28:17.612Z,101728.81
2023-04-04T15:30:46.037Z,101731.69
2023-04-04T15:33:14.881Z,101733.56
2023-04-04T15:35:43.670Z,101724.00
2023-04-04T15:38:12.408Z,101731.69
2023-04-04T15:40:42.358Z,101697.75
2023-04-04T15:43:11.359Z,101731.38
2023-04-04T15:45:40.056Z,101736.41
2023-04-04T15:48:08.591Z,101731.56
2023-04-04T15:50:37.320Z,101730.13
2023-04-04T15:53:06.041Z,101728.81
2023-04-04T15:55:35.098Z,101728.41
2023-04-04T15:58:05.100Z,101726.72
2023-04-04T16:00:33.763Z,101698.50
2023-04-04T16:03:02.384Z,101722.16
2023-04-04T16:05:30.859Z,101720.91
2023-04-04T16:07:59.595Z,101717.44
2023-04-04T16:10:28.365Z,101715.00
2023-04-04T16:12:56.764Z,101715.13
2023-04-04T16:15:27.163Z,101715.91
2023-04-04T16:17:58.776Z,101716.03
2023-04-04T16:20:27.903Z,101716.88
2023-04-04T16:22:56.369Z,101709.78
2023-04-04T16:25:24.771Z,101708.81
2023-04-04T16:27:53.277Z,101699.63
2023-04-04T16:30:21.904Z,101701.03
2023-04-04T16:32:51.903Z,101701.94
2023-04-04T16:35:20.896Z,101689.72
2023-04-04T16:37:49.404Z,101695.84
2023-04-04T16:40:18.205Z,101694.00
2023-04-04T16:42:46.930Z,101696.81
2023-04-04T16:45:15.670Z,101702.19
2023-04-04T16:47:44.362Z,101699.38
2023-04-04T16:50:14.355Z,101702.94
2023-04-04T16:52:43.097Z,101689.63
2023-04-04T16:55:11.673Z,101670.72
2023-04-04T16:57:41.102Z,101694.25
2023-04-04T17:00:11.028Z,101689.81
2023-04-04T17:02:45.287Z,101662.41
2023-04-04T17:05:16.481Z,101689.94
2023-04-04T17:07:45.227Z,101683.00
2023-04-04T17:10:14.699Z,101678.41
2023-04-04T17:12:44.543Z,101657.97
2023-04-04T17:15:15.589Z,101675.56
2023-04-04T17:17:45.182Z,101672.78
2023-04-04T17:20:18.148Z,101671.91
2023-04-04T17:22:49.714Z,101674.56
2023-04-04T17:25:18.512Z,101670.94
2023-04-04T17:27:46.888Z,101670.00
2023-04-04T17:30:16.775Z,101668.13
2023-04-04T17:32:46.182Z,101676.78
2023-04-04T17:35:16.534Z,101642.22
2023-04-04T17:37:44.991Z,101674.03
2023-04-04T17:40:14.403Z,101669.56
2023-04-04T17:42:43.139Z,101672.97
2023-04-04T17:45:12.667Z,101655.19
2023-04-04T17:47:41.467Z,101665.63
2023-04-04T17:50:10.903Z,101669.03
2023-04-04T17:52:40.877Z,101667.31
2023-04-04T17:55:11.372Z,101662.09
2023-04-04T17:57:40.990Z,101659.47
2023-04-04T18:00:11.293Z,101651.41
2023-04-04T18:02:40.136Z,101659.34
2023-04-04T18:05:12.567Z,101639.84
2023-04-04T18:07:42.445Z,101654.94
2023-04-04T18:10:11.967Z,101661.13
2023-04-04T18:12:40.706Z,101666.31
2023-04-04T18:15:10.906Z,101656.66
2023-04-04T18:17:39.852Z,101651.34
2023-04-04T18:20:10.591Z,101631.81
2023-04-04T18:22:42.910Z,101644.19
2023-04-04T18:25:11.634Z,101655.69
2023-04-04T18:27:41.227Z,101651.22
2023-04-04T18:30:11.467Z,101647.66
2023-04-04T18:32:40.791Z,101649.41
2023-04-04T18:35:10.227Z,101622.81
2023-04-04T18:37:38.931Z,101618.38
2023-04-04T18:40:10.175Z,101641.50
2023-04-04T18:42:38.819Z,101641.47
2023-04-04T18:45:09.647Z,101647.56
2023-04-04T18:47:39.432Z,101649.31
2023-04-04T18:50:09.647Z,101644.09
2023-04-04T18:52:38.380Z,101652.88
2023-04-04T18:55:09.351Z,101640.56
2023-04-04T18:57:38.467Z,101644.94
2023-04-04T19:00:08.776Z,101637.91
2023-04-04T19:02:38.436Z,101647.56
2023-04-04T19:05:09.260Z,101647.47
2023-04-04T19:07:39.161Z,101649.22
2023-04-04T19:10:11.160Z,101654.38
2023-04-04T19:12:39.917Z,101650.81
2023-04-04T19:15:09.384Z,101646.38
2023-04-04T19:17:37.905Z,101621.47
2023-04-04T19:20:08.458Z,101651.34
2023-04-04T19:22:37.003Z,101648.66
2023-04-04T19:25:06.280Z,101642.44
2023-04-04T19:27:36.140Z,101627.41
2023-04-04T19:30:40.472Z,101644.25
2023-04-04T19:33:12.002Z,101647.59
2023-04-04T19:35:59.056Z,101627.16
2023-04-04T19:38:29.868Z,101645.66
2023-04-04T19:41:00.933Z,101640.31
2023-04-04T19:43:31.644Z,101634.16
2023-04-04T19:46:08.574Z,101641.22
2023-04-04T19:48:48.771Z,101618.38
2023-04-04T19:51:50.649Z,101635.13
2023-04-04T19:54:26.964Z,101615.63
2023-04-04T19:57:03.294Z,101633.31
2023-04-04T19:59:59.174Z,101635.16
2023-04-04T20:02:55.088Z,101608.78
2023-04-04T20:05:58.706Z,101632.50
2023-04-04T20:08:37.595Z,101626.97
2023-04-04T20:11:07.808Z,101624.81
2023-04-04T20:13:38.117Z,101626.94
2023-04-04T20:16:11.501Z,101623.91
2023-04-04T20:18:43.202Z,101619.13
2023-04-04T20:21:15.102Z,101617.22
2023-04-04T20:23:52.560Z,101616.22
2023-04-04T20:26:51.321Z,101612.72
2023-04-04T20:29:22.769Z,101611.16
2023-04-04T20:31:55.460Z,101603.25
2023-04-04T20:34:42.024Z,101583.03
2023-04-04T20:37:14.809Z,101607.13
2023-04-04T20:39:50.075Z,101606.28
2023-04-04T20:42:39.961Z,101588.44
2023-04-04T20:45:47.785Z,101609.59
2023-04-04T20:48:41.707Z,101613.03
2023-04-04T20:51:28.211Z,101605.91
2023-04-04T20:53:59.286Z,101604.91
2023-04-04T20:56:55.480Z,101609.97
2023-04-04T20:59:49.833Z,101602.84
2023-04-04T21:02:19.990Z,101605.56
2023-04-04T21:04:53.045Z,101605.53
2023-04-04T21:07:41.304Z,101562.16
2023-04-04T21:10:25.884Z,101603.66
2023-04-04T21:12:55.038Z,101601.88
2023-04-04T21:15:29.496Z,101601.78
2023-04-04T21:18:02.386Z,101567.97
2023-04-04T21:21:19.655Z,101594.41
2023-04-04T21:23:52.545Z,101597.59
2023-04-04T21:26:36.560Z,101599.03
2023-04-04T21:29:07.473Z,101559.84
2023-04-04T21:31:39.531Z,101594.16
2023-04-04T21:34:15.760Z,101553.25
2023-04-04T21:36:47.286Z,101584.06
2023-04-04T21:39:22.780Z,101555.34
2023-04-04T21:41:54.062Z,101574.81
2023-04-04T21:44:22.825Z,101576.31
2023-04-04T21:46:51.325Z,101578.69
2023-04-04T21:49:20.111Z,101569.78
2023-04-04T21:51:49.931Z,101573.06
2023-04-04T21:54:18.460Z,101563.22
2023-04-04T21:56:47.941Z,101567.34
2023-04-04T21:59:16.693Z,101571.59
2023-04-04T22:01:45.538Z,101565.44
2023-04-04T22:04:14.055Z,101569.69
2023-04-04T22:06:42.810Z,101565.28
2023-04-04T22:09:12.935Z,101564.28
2023-04-04T22:11:45.320Z,101566.06
2023-04-04T22:14:18.023Z,101565.19
2023-04-04T22:16:47.158Z,101562.63
2023-04-04T22:19:15.683Z,101566.97
2023-04-04T22:21:47.637Z,101533.59
2023-04-04T22:24:18.937Z,101517.78
2023-04-04T22:26:50.479Z,101556.91
2023-04-04T22:29:19.294Z,101549.97
2023-04-04T22:31:48.107Z,101559.56
2023-04-04T22:34:16.833Z,101557.91
2023-04-04T22:36:45.615Z,101551.84
2023-04-04T22:39:15.943Z,101557.94
2023-04-04T22:41:46.201Z,101542.31
2023-04-04T22:44:14.588Z,101553.06
2023-04-04T22:46:42.968Z,101556.69
2023-04-04T22:49:13.382Z,101557.63
2023-04-04T22:51:45.624Z,101552.47
2023-04-04T22:54:16.060Z,101556.97
2023-04-04T22:56:46.607Z,101554.47
2023-04-04T22:59:15.399Z,101538.72
2023-04-04T23:01:44.344Z,101557.25
2023-04-04T23:04:13.499Z,101555.66
2023-04-04T23:06:44.939Z,101551.47
2023-04-04T23:09:13.448Z,101545.69
2023-04-04T23:11:42.300Z,101545.91
2023-04-04T23:14:15.180Z,101549.56
2023-04-04T23:16:43.993Z,101543.56
2023-04-04T23:19:12.817Z,101546.09
2023-04-04T23:21:41.988Z,101539.72
2023-04-04T23:24:10.724Z,101538.47
2023-04-04T23:26:39.083Z,101502.56
2023-04-04T23:29:07.784Z,101527.66
2023-04-04T23:31:37.573Z,101504.78
2023-04-04T23:34:06.009Z,101504.22
2023-04-04T23:36:34.484Z,101525.06
2023-04-04T23:39:03.632Z,101532.44
2023-04-04T23:41:32.532Z,101524.31
2023-04-04T23:44:01.282Z,101526.81
2023-04-04T23:46:30.466Z,101523.13
2023-04-04T23:49:00.305Z,101525.53
2023-04-04T23:51:37.936Z,101519.13
2023-04-04T23:54:07.287Z,101482.34
2023-04-04T23:56:36.802Z,101511.34
2023-04-04T23:59:06.282Z,101512.69
